Wolcott, IN (47995)

2:22 PM EDT on July 24, 2014 (GMT -0400)
Jasper County (KRZL) Elev 696 ft | 40.95 °N, 87.18 °W | Change Station

Current weather conditions updated 7 minutes ago

Partly Cloudy
Partly Cloudy
72 °F
Feels Like 72 °F
N
4
Wind Variable Wind from North

Today is forecast to be Cooler than yesterday.

Today
High -- | Low -- °F
--% Chance of Precip.
Yesterday
High -- | Low -- °F
Precip. -- in
6:37 AM 9:11 PM
Waning Crescent, 4% visible
Pressure 30.14 in
Visibility 10.0 miles
Clouds Mostly Cloudy 5000 ft
Dew Point 54 °F
Humidity 53%
Rainfall 0.00 in
Snow Depth Not available.
UV 6 out of 12
Pollen 5.90 out of 12
Air Quality Not available.
Flu Activity Not available.
METAR KRZL 241815Z AUTO 01003KT 10SM BKN050 22/12 A3014 RMK AO2

More Conditions Fewer Conditions

Pressure 30.14 in
Visibility 10.0 miles
Clouds Mostly Cloudy 5000 ft
Dew Point 54 °F
Humidity 53%
Rainfall 0.00 in
Snow Depth Not available.
UV 6 out of 12
Pollen 5.90 out of 12
Air Quality Not available.
Flu Activity Not available.
METAR KRZL 241815Z AUTO 01003KT 10SM BKN050 22/12 A3014 RMK AO2

More Conditions Fewer Conditions

10-Day Weather Forecast

Almanac

Astronomy

Jul. 24, 2014 Rise Set
Actual Time 6:37 AM EDT 9:11 PM EDT
Civil Twilight 6:05 AM EDT 9:42 PM EDT
Nautical Twilight 5:26 AM EDT 10:22 PM EDT
Astronomical Twilight 4:42 AM EDT 11:06 PM EDT
Moon 4:45 AM EDT 7:26 PM EDT
Length of Visible Light 15h 37m
Length of Day
14h 34m
Tomorrow will be 1m 47s shorter.
Waning Crescent, 4% of the Moon is Illuminated
Today
Waning Crescent
Jul 26
New
Aug 3
First Quarter
Aug 10
Full
Aug 17
Last Quarter

Today's Extremes

State Highs State Lows

Community

WunderPhotos

Upload Photos

1,737,088 photos uploaded!

Nearby

Snow Depth

Station Depth Elevation
No new snow has been reported.

Earthquake Activity

City Distance Mag. Time & Date
No recent earthquake activity has been reported nearby.
Minimum magnitude displayed is 2.5.

Coastal Water Temperatures

Place Temperature
No Stations Reporting

Nearby Weather Stations

Station Location Temp. Heat Index Dew Point Humidity Wind Precip. Elev Updated Type
Bluewater Drive, Monticello, IN 76.6 °F 78 °F 66 °F 70% NE  at  3.2 mph - / hr 623 ft 2:11 PM EDT Normal
Oxford, Oxford, IN 72.5 °F 76 °F 58 °F 60% North  at  0.0 mph 0.00 in / hr 732 ft 2:21 PM EDT Normal
Prophet's Ridge, West Lafayette, IN 75.2 °F 78 °F 57 °F 54% NNE  at  2.0 mph 0.00 in / hr 679 ft 2:22 PM EDT Normal
Pine View Farms, West Lafayette, IN 74.7 °F 77 °F 58 °F 57% North  at  4.0 mph 0.00 in / hr 696 ft 2:22 PM EDT Rapid Fire
FFR Cooperative, Lafayette, IN 72.5 °F 77 °F 55 °F 55% WSW  at  7.0 mph 0.00 in / hr 630 ft 2:22 PM EDT Rapid Fire

Show More Stations Show Fewer Stations